Tiempo atmosférico en la estación meteorológica de Girona Aeropuerto, Girona (143 m.)



Fecha
DESCASC
Temp. máxima en grados centígrados (hora)
DESCASC
Temp. mínima en grados centígrados (hora)
DESCASC
Temp. media en grados centígrados
DESCASC
Racha de viento máxima en m/sg (hora)
DESCASC
Velocidad máxima media en intervalos de 10 minutos(hora)
DESCASC
Precipitaciones diarias en mm
DESCASC
Precipitaciones de 00:00 a 06:00 en mm
DESCASC
Precipitaciones de 06:00 a 12:00 en mm
DESCASC
Precipitaciones de 12:00 a 18:00 en mm
DESCASC
Precipitaciones de 18:00 a 24:00 en mm
DESCASC
17-05-2019 14.6 (18:00) 10.8 (00:00) 12.7 9.72 (14:20) 7.22 (15:20) 8.5 0.5 6 2 0
03-05-2019 14.1 (09:10) 8.2 (00:00) 11.2 9.17 (14:20) 6.39 (14:20) 14.1 2.1 4 8 0
10-05-2019 25.9 (15:50) 9.6 (00:00) 17.8 10.28 (16:10) 7.22 (16:20) 0 0 0 0 0
23-05-2019 26 (14:40) 10.1 (06:30) 18.1 8.33 (13:40) 5.56 (16:10) 0 0 0 0 0
22-05-2019 25.2 (14:40) 10.1 (06:30) 17.7 9.17 (17:00) 6.94 (17:00) 0 0 0 0 0
21-05-2019 23.7 (15:00) 8.8 (06:10) 16.3 7.78 (14:40) 5.83 (14:40) 0.1 0 0 0.1 0
20-05-2019 21.4 (15:40) 7.3 (05:30) 14.3 9.17 (13:10) 5 (13:50) 0 0 0 0 0
19-05-2019 19.8 (13:50) 6.8 (00:00) 13.3 10.28 (14:20) 7.78 (14:20) 6 0 0 6 0
18-05-2019 16.3 (12:30) 10.2 (00:00) 13.2 9.72 (13:50) 6.39 (16:40) 15.3 5.3 0 9.5 0.5
16-05-2019 23.3 (13:10) 5 (00:00) 14.1 16.11 (14:40) 11.39 (15:20) 0 0 0 0 0
15-05-2019 19.1 (14:00) 8.5 (00:00) 13.8 13.89 (13:30) 7.78 (12:40) 0 0 0 0 0
14-05-2019 21.8 (12:30) 5.8 (00:00) 13.8 9.72 (14:40) 7.22 (14:50) 0 0 0 0 0
13-05-2019 24.3 (17:10) 5.3 (00:00) 14.8 15.28 (14:10) 10.83 (14:10) 0 0 0 0 0
12-05-2019 24.5 (17:40) 7 (00:00) 15.8 15.28 (20:00) 9.44 (18:50) 0 0 0 0 0
11-05-2019 22.9 (13:10) 11.1 (00:00) 17 9.17 (16:00) 6.39 (16:10) 0.9 0 0 0 0.9
26-04-2019 19.6 (15:40) 5.6 (00:00) 12.6 10.83 (14:50) 7.5 (14:50) 0 0 0 0 0
09-05-2019 20.3 (16:10) 7.7 (00:00) 14 12.78 (15:40) 8.89 (17:20) 0 0 0 0 0
08-05-2019 26 (15:10) 13.7 (00:00) 19.8 13.89 (20:50) 9.17 (16:40) 5.2 0 0 0 5.2
07-05-2019 21.3 (14:20) 4.7 (00:00) 13 13.89 (15:50) 10.56 (16:00) 0 0 0 0 0
06-05-2019 19.4 (14:10) 2.5 (00:00) 10.9 12.5 (16:00) 8.61 (16:00) 0 0 0 0 0
05-05-2019 20.2 (15:00) 5.6 (00:00) 12.9 13.33 (03:30) 10 (03:40) 0 0 0 0 0
04-05-2019 20.4 (15:50) 3.4 (00:00) 11.9 8.89 (15:00) 6.39 (17:30) 0.2 0 0 0 0.2
02-05-2019 21.5 (15:00) 11.3 (07:10) 16.4 10.28 (15:50) 7.22 (14:10) 0.5 0 0 0 0.5
01-05-2019 23.1 (13:40) 8.6 (00:00) 15.9 10.28 (15:40) 7.22 (15:40) 0 0 0 0 0
30-04-2019 21.6 (14:00) 11 (00:00) 16.3 10.28 (14:40) 6.67 (14:40) 0 0 0 0 0
29-04-2019 20.8 (17:50) 10.3 (00:00) 15.5 7.22 (16:40) 5.28 (18:50) 0 0 0 0 0
28-04-2019 18.4 (13:00) 6.9 (00:00) 12.6 10.28 (16:10) 7.78 (16:10) 0 0 0 0 0
27-04-2019 21.2 (16:30) 6.8 (00:00) 14 9.17 (12:20) 5.56 (11:30) 0 0 0 0 0

Gráficas

Temp. máximas Temp. mínimas Temp. medias Precipitaciones Rachas de viento máximas Velocidades máximas media en intervalos de 10 minutos

Datos horarios

Fecha y hora oficial Temperatura (ºC) Velocidad del viento (km/h) Dirección del viento Racha (km/h) Dirección de racha Precipitación (mm) Presión (hPa) Tendencia (hPa) Humedad (%)
2019-05-25 23:00:00 16.2 4 Nordeste 11 Oeste 0 1000.6 1.6 78
2019-05-25 22:00:00 16.8 8 Oeste 11 Nordeste 0 999.9 1.3 67
2019-05-25 21:00:00 19.5 0 Calma 24 Este 0 999.4 0.8 55
2019-05-25 20:00:00 21.7 13 Este 22 Nordeste 0 999 0.5 47
2019-05-25 19:00:00 22.8 16 Nordeste 28 Norte 0 998.6 -0.2 42
2019-05-25 18:00:00 24.1 16 Nordeste 39 Nordeste 0 998.6 -0.6 40
2019-05-25 17:00:00 24.5 26 Nordeste 46 Nordeste 0 998.5 -1.1 42
2019-05-25 16:00:00 24.2 21 Nordeste 32 Nordeste 0 998.8 -1.2 45
2019-05-25 15:00:00 22.7 22 Norte 35 Norte 0 999.2 -1 52
2019-05-25 14:00:00 21.1 6 Norte 15 Norte 0 999.6 -0.6 71
2019-05-25 13:00:00 18.4 8 Nordeste 13 Noroeste 0 1000 -0.3 80
2019-05-25 12:00:00 16.9 5 Noroeste 11 Norte 0 1000.2 0.1 90
2019-05-25 11:00:00 14.7 3 Nordeste 13 Noroeste 0 1000.2 0.6 94
2019-05-25 10:00:00 14.4 6 Norte 15 Norte 0.1 1000.3 1.8 96
2019-05-25 09:00:00 13.6 8 Noroeste 13 Noroeste 0.3 1000.1 2 99
2019-05-25 08:00:00 13.5 4 Sudoeste 13 Sudeste 0.2 999.6 1.3 99
2019-05-25 07:00:00 13.1 6 Sudeste 11 Este 0 998.5 0.1 99
2019-05-25 06:00:00 12.9 3 Oeste 8 Oeste 0 998.1 0 99
2019-05-25 05:00:00 13.1 2 Sudoeste 15 Sudeste 0 998.3 -0.3 99
2019-05-25 04:00:00 13.3 8 Sudeste 11 Sudeste 0 998.4 -0.6 99
2019-05-25 03:00:00 13.3 3 Sudoeste 8 Sudoeste 0 998.1 -1.2 98
2019-05-25 02:00:00 13.8 0 Calma 8 Sudeste 0 998.6 -1.2 99
2019-05-25 01:00:00 13.9 0 Calma -- -- 0 999 -0.5 99
2019-05-25 00:00:00 14 0 Calma 8 Oeste 0.2 999.3 0.2 98
2019-05-24 23:00:00 14.1 0 Calma -- -- 0.5 999.8 0.9 98
2019-05-24 22:00:00 14.2 0 Calma 2 Este 0.1 999.5 0.3 97
2019-05-24 21:00:00 14.4 0 Calma 9 Este 0 999.1 -0.7 95
2019-05-24 20:00:00 14.5 0 Calma 8 Este 0 998.9 -1.2 94
2019-05-24 19:00:00 14.3 3 Oeste 9 Oeste 0.1 999.2 -1.1 94
2019-05-24 18:00:00 14.4 4 Oeste 8 Oeste 2 999.8 -0.4 95
2019-05-24 17:00:00 14.4 4 Sudoeste 11 Sudoeste 3 1000.1 0.1 92
2019-05-24 16:00:00 14.6 10 Sudoeste 21 Sur 1.4 1000.3 0.6 93
2019-05-24 15:00:00 17 7 Sur 21 Sudoeste 1 1000.2 0.4 75
2019-05-24 14:00:00 17.9 0 Calma 9 Este 0.3 1000 0.7 73
2019-05-24 13:00:00 18.2 6 Este 9 Este 0.1 999.7 0.6 78
2019-05-24 12:00:00 18.2 0 Calma 8 Sudoeste 0 999.8 0.9 82
2019-05-24 11:00:00 17.5 0 Calma 9 Nordeste 0 999.3 0.5 85
2019-05-24 10:00:00 16.7 0 Calma 8 Oeste 0 999.1 0.3 89
2019-05-24 09:00:00 16.1 4 Sur 8 Sur 0 998.9 0.4 91
2019-05-24 08:00:00 15.8 0 Calma 8 Sudeste 0 998.8 0.4 92
2019-05-24 07:00:00 15.1 4 Este 9 Este 0 998.8 -0.1 95
2019-05-24 06:00:00 14.4 7 Noroeste 9 Noroeste 0 998.5 -0.8 97
2019-05-24 05:00:00 14.8 0 Calma 9 Nordeste 0 998.4 -1.4 95
2019-05-24 04:00:00 14.9 6 Nordeste 9 Nordeste 0 998.9 -1.1 95
2019-05-24 03:00:00 14.7 5 Nordeste 8 Nordeste 0 999.3 -0.8 94
2019-05-24 02:00:00 14.8 4 Oeste 11 Oeste 0 999.8 -0.5 93
2019-05-24 01:00:00 16 4 Sur 8 Sudoeste 0 1000 -0.1 89
2019-05-24 00:00:00 16.5 3 Sudeste 8 Sur 0 1000.1 0.3 86
2019-05-23 23:00:00 16.9 8 Sudoeste 9 Sudoeste 0 1000.3 0.5 83
2019-05-23 22:00:00 17.3 5 Sudoeste 15 Sudoeste 0 1000.1 0.4 81
2019-05-23 21:00:00 18.1 11 Sur 21 Sudoeste 0 999.8 0 76
2019-05-23 20:00:00 20 13 Sur 18 Sur 0 999.8 -0.1 66
2019-05-23 19:00:00 22 12 Sur 24 Sur 0 999.7 -0.4 60
2019-05-23 18:00:00 22.8 15 Sur 24 Sur 0 999.8 -0.5 58
2019-05-23 17:00:00 23.7 16 Sur 30 Sur 0 999.9 -0.6 51
2019-05-23 16:00:00 24.8 19 Sur 30 Sur 0 1000.1 -1 44
2019-05-23 15:00:00 25.5 18 Sur 28 Sur 0 1000.3 -1.4 34
2019-05-23 14:00:00 25.6 16 Sudeste 30 Sudeste 0 1000.5 -1.4 42
2019-05-23 13:00:00 24.9 6 Sudoeste 18 Nordeste 0 1001.1 -1.1 41
2019-05-23 12:00:00 23.9 4 Nordeste 18 Nordeste 0 1001.7 -0.3 43
2019-05-23 11:00:00 22.8 7 Este 15 Nordeste 0 1001.9 0.3 49
2019-05-23 10:00:00 20.5 10 Nordeste 15 Nordeste 0 1002.2 0.9 57
2019-05-23 09:00:00 17.2 4 Sudoeste 8 Sur 0 1002 0.7 77
2019-05-23 08:00:00 13.7 0 Calma 13 Nordeste 0 1001.6 0.3 90
2019-05-23 07:00:00 10.7 0 Calma -- -- 0 1001.3 -0.1 96
2019-05-23 06:00:00 10.5 0 Calma -- -- 0 1001.3 -0.5 96
2019-05-23 05:00:00 10.8 0 Calma 8 Sur 0 1001.3 -0.7 96
2019-05-23 04:00:00 11.8 5 Oeste 9 Noroeste 0 1001.4 -0.8 96
2019-05-23 03:00:00 11.9 6 Oeste 9 Oeste 0 1001.8 -0.4 96
2019-05-23 02:00:00 12.7 5 Nordeste 8 Norte 0 1002 -0.2 93
2019-05-23 01:00:00 14 0 Calma 9 Sudoeste 0 1002.2 0.4 91
2019-05-23 00:00:00 14.9 4 Sudoeste 5 Sur 0 1002.2 0.8 89
2019-05-22 23:00:00 16.1 0 Calma 9 Sudoeste 0 1002.2 1.1 85
2019-05-22 22:00:00 16.8 6 Sudoeste 15 Sur 0 1001.8 1 83
2019-05-22 21:00:00 17.5 11 Sur 22 Sur 0 1001.4 0.6 77
2019-05-22 20:00:00 20.7 16 Sur 24 Sur 0 1001.1 0.2 58
2019-05-22 19:00:00 21.9 19 Sur 32 Sudoeste 0 1000.8 -0.1 50
2019-05-22 18:00:00 23.1 23 Sur 33 Sur 0 1000.8 -0.4 48
2019-05-22 17:00:00 23.9 25 Sur 33 Sur 0 1000.9 -0.5 46
2019-05-22 16:00:00 24.5 23 Sur 32 Sur 0 1000.9 -1 46
2019-05-22 15:00:00 25.1 22 Sur 30 Sur 0 1001.2 -1 43
2019-05-22 14:00:00 24.9 9 Sur 22 Sur 0 1001.4 -0.8 38
2019-05-22 13:00:00 24.2 12 Sur 24 Sur 0 1001.9 -0.3 40
2019-05-22 12:00:00 23.2 10 Sudoeste 18 Sur 0 1002.2 0.1 41
2019-05-22 11:00:00 21.8 8 Sur 13 Sur 0 1002.2 0.4 50
2019-05-22 10:00:00 19.7 3 Sur 9 Sur 0 1002.2 0.7 68
2019-05-22 09:00:00 17.1 0 Calma 8 Este 0 1002.1 0.7 78
2019-05-22 08:00:00 13.7 4 Este 8 Este 0 1001.8 0.4 90
2019-05-22 07:00:00 10.7 0 Calma 5 Nordeste 0 1001.5 0.2 96
2019-05-22 06:00:00 10.6 6 Nordeste 9 Nordeste 0 1001.4 0 97
2019-05-22 05:00:00 11.2 4 Oeste 8 Oeste 0 1001.4 0.1 97
2019-05-22 04:00:00 11.4 4 Nordeste 8 Este 0 1001.3 -0.3 97
2019-05-22 03:00:00 11.9 8 Nordeste 9 Nordeste 0 1001.4 -0.2 96
2019-05-22 02:00:00 13.2 0 Calma -- -- 0 1001.3 -0.3 95
2019-05-22 01:00:00 13.8 0 Calma 2 Norte 0 1001.6 0.6 93
2019-05-22 00:00:00 15.4 3 Sur 11 Sur 0 1001.6 1 89
2019-05-21 23:00:00 15.8 8 Sur 13 Sur 0 1001.6 1.5 90
2019-05-21 22:00:00 16.2 9 Sur 13 Sur 0 1001 1.2 88
2019-05-21 21:00:00 16.9 8 Sudoeste 15 Sudoeste 0 1000.6 0.6 82
2019-05-21 20:00:00 18.1 11 Sudoeste 21 Sudoeste 0 1000.1 0.3 72
2019-05-21 19:00:00 21.4 8 Sur 21 Sudoeste 0 999.8 -0.1 51
2019-05-21 18:00:00 21.3 14 Sudoeste 22 Sur 0 1000 0.6 55
2019-05-21 17:00:00 20.7 9 Sudeste 13 Sudeste 0 999.8 0.5 50
2019-05-21 16:00:00 19.8 7 Sudoeste 26 Sur 0.1 999.9 0.5 65
2019-05-21 15:00:00 23.4 18 Sur 28 Sur 0 999.4 -0.3 47
2019-05-21 14:00:00 22.6 11 Sur 21 Sudeste 0 999.3 -0.5 43
2019-05-21 13:00:00 22.4 10 Sudeste 21 Sur 0 999.4 -0.3 43
2019-05-21 12:00:00 21.3 11 Sudoeste 17 Sudoeste 0 999.7 0 42
2019-05-21 11:00:00 19.8 6 Sur 13 Sur 0 999.8 0.3 51
2019-05-21 10:00:00 18.5 4 Este 9 Este 0 999.7 0.7 59
2019-05-21 09:00:00 15.8 0 Calma 4 Oeste 0 999.7 1 77
2019-05-21 08:00:00 12.8 3 Este 5 Este 0 999.5 0.9 87
2019-05-21 07:00:00 9 0 Calma 5 Este 0 999 0.5 97
2019-05-21 06:00:00 9 3 Nordeste 8 Nordeste 0 998.7 0.1 97
2019-05-21 05:00:00 9.6 0 Calma 9 Oeste 0 998.6 -0.2 96
2019-05-21 04:00:00 10.5 6 Norte 9 Norte 0 998.5 -0.5 96
2019-05-21 03:00:00 11.1 0 Calma 5 Norte 0 998.6 -0.4 94
2019-05-21 02:00:00 11.9 0 Calma 5 Sudoeste 0 998.8 0 92
2019-05-21 01:00:00 11.9 2 Sudoeste 8 Oeste 0 999 0.9 92
2019-05-21 00:00:00 12.5 5 Oeste 8 Oeste 0 999 1.2 90
2019-05-20 23:00:00 13 4 Sudoeste 9 Oeste 0 998.8 1.4 89
2019-05-20 22:00:00 14.1 7 Sudoeste 15 Sur 0 998.1 1.1 84
2019-05-20 21:00:00 14.6 10 Sudoeste 18 Sudoeste 0 997.8 0.9 78
2019-05-20 20:00:00 15.7 12 Sudoeste 22 Sudoeste 0 997.4 0.9 71
2019-05-20 19:00:00 18.4 9 Sudoeste 17 Este 0 997 1 59
2019-05-20 18:00:00 17.5 9 Norte 18 Sudeste 0 996.9 0.9 74
2019-05-20 17:00:00 19 14 Sudeste 28 Sur 0 996.5 0.4 52
2019-05-20 16:00:00 20.9 15 Sur 32 Sudeste 0 996 -0.2 50
2019-05-20 15:00:00 20.8 15 Sudeste 26 Sudeste 0 996 -0.3 50
2019-05-20 14:00:00 20.5 15 Sudeste 33 Sudeste 0 996.1 -0.1 52
2019-05-20 13:00:00 19.3 10 Sudeste 21 Sur 0 996.2 0.2 57
2019-05-20 12:00:00 18.8 10 Sur 21 Sudeste 0 996.3 0.9 59
2019-05-20 11:00:00 17.7 7 Sudoeste 13 Sur 0 996.2 1 58
2019-05-20 10:00:00 17 8 Sur 15 Sudeste 0 996 1.2 68
2019-05-20 09:00:00 13.3 4 Noroeste 9 Oeste 0 995.4 0.9 88
2019-05-20 08:00:00 10.9 0 Calma 8 Nordeste 0 995.2 0.7 94
2019-05-20 07:00:00 8 3 Este 9 Nordeste 0 994.8 0.3 99
2019-05-20 06:00:00 7.7 0 Calma 8 Nordeste 0 994.5 -0.1 99
2019-05-20 05:00:00 8.1 0 Calma 9 Oeste 0 994.5 -0.2 98
2019-05-20 04:00:00 8 8 Oeste 11 Oeste 0 994.5 -0.5 98
2019-05-20 03:00:00 9.5 0 Calma -- -- 0 994.6 -0.5 99
2019-05-20 02:00:00 9.4 0 Calma 8 Sur 0 994.7 -0.5 98
2019-05-20 01:00:00 9.5 5 Oeste 8 Oeste 0 995 0.3 98
2019-05-20 00:00:00 10.6 0 Calma 5 Sudoeste 0 995.1 1 96
2019-05-19 23:00:00 10.8 0 Calma 11 Sudeste 0 995.2 1.5 95
2019-05-19 22:00:00 11.7 3 Sur 13 Sur 0 994.7 1.5 94
2019-05-19 21:00:00 12.7 9 Sur 18 Sur 0 994.1 0.8 91
2019-05-19 20:00:00 13.8 12 Sudoeste 22 Sudoeste 0 993.7 0 84
2019-05-19 19:00:00 14.9 15 Sudoeste 21 Sudoeste 0 993.2 -0.4 81
2019-05-19 18:00:00 13.8 12 Sur 22 Sudoeste 0 993.3 0.7 88
2019-05-19 17:00:00 12.1 10 Sur 24 Sudoeste 0.3 993.7 1.6 93
2019-05-19 16:00:00 10.5 13 Sudoeste 32 Sudoeste 5.7 993.6 1.5 90
2019-05-19 15:00:00 15.3 19 Sur 37 Sur 0 992.6 0.2 68
2019-05-19 14:00:00 19.8 15 Sur 33 Sur 0 992.1 -0.5 54
2019-05-19 13:00:00 17.6 6 Este 17 Este 0 992.1 -0.4 60
2019-05-19 12:00:00 16.6 7 Este 17 Este 0 992.4 0.2 61
2019-05-19 11:00:00 13.7 4 Este 11 Este 0 992.6 0.4 74
2019-05-19 10:00:00 11.9 4 Este 9 Este 0 992.5 0.6 88
2019-05-19 09:00:00 10.1 0 Calma 11 Sudoeste 0 992.2 0.2 99
2019-05-19 08:00:00 9.2 0 Calma 9 Nordeste 0 992.2 0.1 100
2019-05-19 07:00:00 7 0 Calma -- -- 0 991.9 -0.4 100
2019-05-19 06:00:00 7.3 0 Calma 5 Nordeste 0 992 -0.6 100
2019-05-19 05:00:00 8.1 5 Nordeste 8 Nordeste 0 992.1 -1 100
2019-05-19 04:00:00 9.1 0 Calma 11 Nordeste 0 992.3 -1.3 100
2019-05-19 03:00:00 9.9 4 Oeste 8 Oeste 0 992.6 -1 100
2019-05-19 02:00:00 10.1 0 Calma 13 Este 0 993.1 -0.4 99
2019-05-19 01:00:00 10 3 Nordeste 9 Norte 0 993.6 0.1 99
2019-05-19 00:00:00 10.2 0 Calma 8 Sudoeste 0 993.6 0.2 98
2019-05-18 23:00:00 10.6 5 Sudoeste 11 Sudoeste 0 993.5 0.5 98
2019-05-18 22:00:00 11.2 9 Nordeste 11 Nordeste 0 993.5 0.6 97
2019-05-18 21:00:00 11.7 6 Sudoeste 9 Oeste 0 993.4 0.8 95
2019-05-18 20:00:00 12.5 3 Este 11 Sudeste 0 993 0.6 90
2019-05-18 19:00:00 11.5 0 Calma 9 Norte 0.5 992.9 1.1 95
2019-05-18 18:00:00 11.3 9 Nordeste 21 Este 4.9 992.6 0.9 95
2019-05-18 17:00:00 11 17 Nordeste 30 Nordeste 4.3 992.4 0.8 97
2019-05-18 16:00:00 14.4 11 Sur 28 Sur 0.2 991.8 -0.1 84
2019-05-18 15:00:00 14.3 15 Sur 32 Sur 0 991.7 0.1 86
2019-05-18 14:00:00 15.2 22 Sur 35 Sur 0 991.6 -0.2 79
2019-05-18 13:00:00 14.8 17 Sur 28 Sur 0.1 991.9 0 81
2019-05-18 12:00:00 16 5 Este 11 Este 0 991.6 -0.3 72
2019-05-18 11:00:00 15.3 5 Este 9 Este 0 991.8 0.4 77
2019-05-18 10:00:00 12.8 5 Sudeste 11 Sudeste 0 991.9 0.4 91
2019-05-18 09:00:00 11.5 0 Calma 5 Oeste 0 991.9 1.1 95
2019-05-18 08:00:00 10.9 2 Este 8 Nordeste 0 991.4 0.5 98
2019-05-18 07:00:00 10.7 0 Calma 8 Sur 0 991.5 0.3 99
2019-05-18 06:00:00 10.6 5 Sudoeste 8 Sudoeste 0 990.8 -0.8 98
2019-05-18 05:00:00 10.6 0 Calma -- -- 0 990.9 -1 97
2019-05-18 04:00:00 10.7 0 Calma -- -- 0.5 991.2 -0.8 97
2019-05-18 03:00:00 10.7 0 Calma 8 Oeste 2.2 991.6 -0.2 97
2019-05-18 02:00:00 10.8 5 Oeste 8 Oeste 1.8 991.9 0.2 97
2019-05-18 01:00:00 11.1 0 Calma 9 Nordeste 0.8 992 1 94
2019-05-18 00:00:00 11.1 7 Nordeste 9 Nordeste 0 991.8 1.4 91
2019-05-17 23:00:00 11.1 6 Noroeste 13 Norte 0 991.7 1.6 86
2019-05-17 22:00:00 11.1 11 Norte 18 Norte 0 991 1.1 86
2019-05-17 21:00:00 12.3 15 Nordeste 26 Norte 0 990.4 1 80
2019-05-17 20:00:00 13.6 18 Norte 28 Norte 0 990.1 -- 74
2019-05-17 19:00:00 14.2 10 Norte 28 Nordeste 0 989.9 1 75
2019-05-17 18:00:00 14.5 17 Norte 28 Norte 0 989.4 1 74
2019-05-17 17:00:00 -- -- -- 28 Norte 0 -- -- --
2019-05-17 16:00:00 12.4 16 Norte 35 Nordeste 0 988.9 0.9 87
2019-05-17 15:00:00 12.2 20 Norte 35 Norte 0.1 988.4 0.4 92
2019-05-17 14:00:00 11.4 23 Norte 32 Norte 1 987.9 -0.1 94
2019-05-17 13:00:00 11.6 14 Norte 22 Norte 0.9 988 -0.1 95
2019-05-17 12:00:00 11.4 11 Norte 18 Norte 1.9 988 -0.1 95
2019-05-17 11:00:00 10.9 13 Norte 21 Norte 0.6 988 0.4 97
2019-05-17 10:00:00 11.6 11 Nordeste 17 Nordeste 0.9 988.1 0.2 95
2019-05-17 09:00:00 11.8 9 Norte 30 Nordeste 2.2 988.1 -0.3 90
2019-05-17 08:00:00 12.5 9 Nordeste 13 Este 0.4 987.6 -0.4 97
2019-05-17 07:00:00 12.2 3 Norte 9 Oeste 0 987.9 -0.9 94
2019-05-17 06:00:00 12 6 Oeste 9 Oeste 0 988.4 -1 93
2019-05-17 05:00:00 12.3 8 Oeste 9 Oeste 0 988 -2.8 93
2019-05-17 04:00:00 12.7 5 Oeste 11 Sur 0 988.8 -2.2 93
2019-05-17 03:00:00 13.3 6 Sur 15 Sur 0.5 989.4 -1.7 91
2019-05-17 02:00:00 13.1 12 Sur 18 Sur 0 990.8 -0.6 81
2019-05-17 01:00:00 12.8 10 Sudoeste 15 Sudoeste 0 991 -0.4 83
2019-05-17 00:00:00 13 12 Sudoeste 22 Sur 0 991.1 0.1 81
2019-05-16 23:00:00 14 14 Sur 28 Sur 0 991.4 0.3 71
2019-05-16 22:00:00 14.6 17 Sur 28 Sur 0 991.4 0.4 75
2019-05-16 21:00:00 16.1 18 Sur 33 Sur 0 991 -0.3 72
2019-05-16 20:00:00 18.1 23 Sur 46 Sur 0 991.1 -0.4 68
2019-05-16 19:00:00 19 34 Sur 48 Sur 0 991 -1.2 64
2019-05-16 18:00:00 18.7 35 Sur 50 Sudoeste 0 991.3 -1.4 64
2019-05-16 17:00:00 20.8 38 Sur 50 Sur 0 991.5 -1.9 53
2019-05-16 16:00:00 21.6 39 Sur 54 Sur 0 992.2 -2 51
2019-05-16 15:00:00 22.7 40 Sur 58 Sur 0 992.7 -2 39
2019-05-16 14:00:00 23.2 37 Sur 50 Sur 0 993.4 -2.3 34
2019-05-16 13:00:00 22.8 35 Sur 50 Sudoeste 0 994.2 -2.4 34
2019-05-16 12:00:00 22.4 36 Sur 50 Sudoeste 0 994.7 -2.2 36
2019-05-16 11:00:00 20.1 25 Sur 33 Sur 0 995.7 -1.7 33
2019-05-16 10:00:00 14.8 7 Sudoeste 15 Sudoeste 0 996.6 -0.9 59
2019-05-16 09:00:00 13.6 8 Sur 13 Sur 0 996.9 -0.8 64
2019-05-16 08:00:00 9.5 0 Calma 5 Sur 0 997.4 -0.6 87
2019-05-16 07:00:00 5.6 2 Noroeste 8 Sudoeste 0 997.5 -0.9 94
2019-05-16 06:00:00 5.4 5 Sudoeste 9 Oeste 0 997.7 -1 93
2019-05-16 05:00:00 5.1 4 Sur 8 Sur 0 998 -1.2 92
2019-05-16 04:00:00 5.9 0 Calma 9 Oeste 0 998.4 -1.2 92
2019-05-16 03:00:00 7 0 Calma 5 Oeste 0 998.7 -1.2 93
2019-05-16 02:00:00 7.1 0 Calma 8 Nordeste 0 999.2 -0.7 92
2019-05-16 01:00:00 7.6 0 Calma 5 Oeste 0 999.6 0.2 87
2019-05-16 00:00:00 9.3 4 Sudoeste 8 Oeste 0 999.9 0.9 84
2019-05-15 23:00:00 10.8 6 Sudoeste 11 Sudoeste 0 999.9 1.6 82
2019-05-15 22:00:00 11.3 8 Sudoeste 15 Sudoeste 0 999.4 1.8 78
2019-05-15 21:00:00 13.2 12 Sudoeste 22 Sur 0 999 1.5 62
2019-05-15 20:00:00 16.2 16 Sudeste 24 Sur 0 998.3 0.8 43
2019-05-15 19:00:00 18.4 15 Sudeste 24 Sur 0 997.6 -0.2 38
2019-05-15 18:00:00 18.7 12 Este 26 Este 0 997.5 -0.4 34
2019-05-15 17:00:00 18.4 12 Este 33 Este 0 997.5 -0.5 40
2019-05-15 16:00:00 18.8 15 Este 33 Este 0 997.8 -0.1 43
2019-05-15 15:00:00 18.2 17 Este 33 Este 0 997.9 0.1 46
2019-05-15 14:00:00 18.8 22 Nordeste 50 Nordeste 0 998 0.2 35
2019-05-15 13:00:00 18.5 28 Nordeste 45 Nordeste 0 997.9 0.3 32
2019-05-15 12:00:00 18.5 26 Este 46 Este 0 997.8 0.5 31
2019-05-15 11:00:00 18.2 23 Nordeste 35 Nordeste 0 997.8 0.7 44
2019-05-15 10:00:00 17.8 22 Nordeste 30 Nordeste 0 997.6 0.5 39
2019-05-15 09:00:00 16.4 14 Nordeste 22 Norte 0 997.3 0 54
2019-05-15 08:00:00 12.1 5 Norte 11 Nordeste 0 997.1 -0.5 80
2019-05-15 07:00:00 10.4 6 Nordeste 13 Noroeste 0 997.1 -0.4 77
2019-05-15 06:00:00 11.7 11 Norte 15 Norte 0 997.3 -0.7 73
2019-05-15 05:00:00 10.6 8 Norte 15 Norte 0 997.6 -0.8 93
2019-05-15 04:00:00 9.6 0 Calma 13 Nordeste 0 997.5 -1.4 96
2019-05-15 03:00:00 8.7 8 Norte 9 Norte 0 998 -1.1 96
2019-05-15 02:00:00 10.3 0 Calma 17 Nordeste 0 998.4 -0.9 95
2019-05-15 01:00:00 11.1 4 Sur 8 Nordeste 0 998.9 -0.3 92
2019-05-15 00:00:00 11.5 0 Calma 8 Oeste 0 999.1 0.2 88
2019-05-14 23:00:00 13.1 7 Sudoeste 13 Oeste 0 999.3 0.5 85
2019-05-14 22:00:00 14.4 5 Oeste 9 Sur 0 999.2 0.3 80
2019-05-14 21:00:00 16.1 9 Sudeste 21 Sur 0 998.9 -0.3 74
2019-05-14 20:00:00 18.1 13 Sur 22 Sur 0 998.8 -1 66
2019-05-14 19:00:00 19.1 20 Sur 32 Sur 0 998.9 -1.2 61
2019-05-14 18:00:00 19.8 21 Sur 32 Sur 0 999.2 -1.2 57
2019-05-14 17:00:00 20.1 22 Sur 32 Sudeste 0 999.8 -1 54
2019-05-14 16:00:00 20.9 20 Sur 32 Sur 0 1000.1 -1.4 51
2019-05-14 15:00:00 20.8 25 Sur 35 Sur 0 1000.4 -1.6 50
2019-05-14 14:00:00 21.1 24 Sur 33 Sur 0 1000.8 -1.9 49
2019-05-14 13:00:00 21.5 21 Sur 33 Sur 0 1001.5 -1.8 50
2019-05-14 12:00:00 21 17 Sur 30 Sur 0 1002 -1.8 46
2019-05-14 11:00:00 20 13 Sur 24 Sur 0 1002.7 -1.2 45
2019-05-14 10:00:00 17.4 9 Sur 13 Sur 0 1003.3 -0.8 54
2019-05-14 09:00:00 14.2 6 Nordeste 9 Nordeste 0 1003.8 -0.3 66
2019-05-14 08:00:00 10.9 0 Calma 8 Oeste 0 1003.9 -0.3 77
2019-05-14 07:00:00 6.3 0 Calma -- -- 0 1004.1 -0.1 88
2019-05-14 06:00:00 6.4 0 Calma 5 Este 0 1004.1 -0.4 89
2019-05-14 05:00:00 7 0 Calma 5 Norte 0 1004.2 -0.8 86
2019-05-14 04:00:00 6.8 3 Nordeste 8 Nordeste 0 1004.2 -0.6 85
2019-05-14 03:00:00 8 2 Este 5 Este 0 1004.5 -0.3 82
2019-05-14 02:00:00 8.7 0 Calma 9 Nordeste 0 1005 0.4 80
2019-05-14 01:00:00 9.7 0 Calma 8 Norte 0 1004.8 0.4 79
2019-05-14 00:00:00 11.1 5 Norte 9 Sudoeste 0 1004.8 1.1 74
2019-05-13 23:00:00 14.4 8 Sudoeste 13 Sudoeste 0 1004.6 1.3 59
2019-05-13 22:00:00 16.1 9 Sur 18 Sur 0 1004.4 1.2 49
2019-05-13 21:00:00 17.9 5 Sur 18 Sur 0 1003.7 0.9 42
2019-05-13 20:00:00 21.3 9 Sur 33 Este 0 1003.3 0.4 32
2019-05-13 19:00:00 23.3 15 Este 33 Nordeste 0 1003.2 0.3 20
2019-05-13 18:00:00 23.7 21 Este 39 Este 0 1002.8 -0.2 18
2019-05-13 17:00:00 24 26 Este 42 Nordeste 0 1002.9 -0.1 18
2019-05-13 16:00:00 23.7 27 Nordeste 46 Este 0 1002.9 -0.6 20
2019-05-13 15:00:00 23.7 31 Nordeste 55 Nordeste 0 1003 -0.7 18
2019-05-13 14:00:00 22.8 39 Nordeste 54 Nordeste 0 1003 -0.8 18
2019-05-13 13:00:00 22.5 33 Nordeste 46 Nordeste 0 1003.5 -0.5 19
2019-05-13 12:00:00 21.7 9 Oeste 22 Sudeste 0 1003.7 -0.3 26
2019-05-13 11:00:00 19.8 12 Sudeste 28 Sudeste 0 1003.8 -0.6 27
2019-05-13 10:00:00 17.3 14 Sur 21 Sur 0 1004 -0.2 61
2019-05-13 09:00:00 13.8 2 Sur 9 Norte 0 1004 -0.3 71
2019-05-13 08:00:00 9.4 3 Oeste 9 Nordeste 0 1004.4 0.2 86
2019-05-13 07:00:00 5.7 3 Nordeste 15 Nordeste 0 1004.2 -0.3 96
2019-05-13 06:00:00 5.7 6 Nordeste 15 Nordeste 0 1004.3 -0.6 93
2019-05-13 05:00:00 7 2 Este 11 Oeste 0 1004.2 -0.9 95
2019-05-13 04:00:00 7.9 5 Nordeste 11 Este 0 1004.5 -0.3 95
2019-05-13 03:00:00 9 5 Oeste 13 Oeste 0 1004.9 -0.1 93
2019-05-13 02:00:00 10.3 4 Sudoeste 21 Sudeste 0 1005.1 0 90
2019-05-13 01:00:00 10.9 9 Oeste 17 Sur 0 1004.8 0.2 88
2019-05-13 00:00:00 13 9 Sudoeste 28 Oeste 0 1005 1.2 64
2019-05-12 23:00:00 16.6 8 Noroeste 35 Norte 0 1005.1 1.9 33
2019-05-12 22:00:00 16.3 10 Noroeste 24 Noroeste 0 1004.6 1.7 53
2019-05-12 21:00:00 18.7 18 Norte 46 Nordeste 0 1003.8 0.5 23
2019-05-12 20:00:00 20.1 33 Nordeste 55 Nordeste 0 1003.2 -0.6 26
2019-05-12 19:00:00 21.6 32 Nordeste 52 Nordeste 0 1002.9 -1.5 25
2019-05-12 18:00:00 23.8 25 Nordeste 39 Este 0 1003.3 -1.7 24
2019-05-12 17:00:00 24.2 9 Sudeste 26 Sur 0 1003.8 -1.6 28
2019-05-12 16:00:00 23.5 9 Sudeste 26 Sudeste 0 1004.4 -1.5 41
2019-05-12 15:00:00 22.7 14 Sur 32 Sur 0 1005 -1.9 46
2019-05-12 14:00:00 22.9 13 Sur 22 Sur 0 1005.4 -1.9 44
2019-05-12 13:00:00 21.5 5 Este 26 Sur 0 1005.9 -1.7 43
2019-05-12 12:00:00 19.1 9 Sur 21 Sudeste 0 1006.9 -0.9 54
2019-05-12 11:00:00 19 6 Este 17 Este 0 1007.3 -0.7 53
2019-05-12 10:00:00 16.4 3 Nordeste 13 Este 0 1007.6 -0.2 66
2019-05-12 09:00:00 14.4 2 Nordeste 9 Nordeste 0 1007.8 0.3 88
2019-05-12 08:00:00 10.3 0 Calma 11 Nordeste 0 1008 0.7 100
2019-05-12 07:00:00 7.5 6 Norte 9 Nordeste 0 1007.8 0.6 100
2019-05-12 06:00:00 7.3 0 Calma 13 Norte 0 1007.5 0.5 99
2019-05-12 05:00:00 7.8 10 Nordeste 13 Nordeste 0 1007.3 0.2 98
2019-05-12 04:00:00 9.4 7 Oeste 9 Oeste 0 1007.2 0.3 99
2019-05-12 03:00:00 9.8 0 Calma 11 Este 0 1007 0.7 99
2019-05-12 02:00:00 10.2 10 Nordeste 13 Nordeste 0 1007.1 1.2 98
2019-05-12 01:00:00 11.3 5 Oeste 9 Oeste 0 1006.9 1.6 98
2019-05-12 00:00:00 11.3 6 Nordeste 13 Norte 0 1006.3 2 97
2019-05-11 23:00:00 13 7 Oeste 9 Oeste 0 1005.9 2.1 95
2019-05-11 22:00:00 13.8 6 Nordeste 13 Este 0 1005.3 1.9 95
2019-05-11 21:00:00 14.7 6 Este 18 Sudoeste 0 1004.3 1.4 89
2019-05-11 20:00:00 15.6 5 Este 17 Sur 0.9 1003.8 1.3 86
2019-05-11 19:00:00 14.9 2 Sudeste 17 Norte 0 1003.4 0.9 86
2019-05-11 18:00:00 16.4 9 Este 22 Este 0 1002.9 0.3 69
2019-05-11 17:00:00 17.3 20 Nordeste 32 Nordeste 0 1002.5 -0.1 61
2019-05-11 16:00:00 19.2 20 Este 33 Nordeste 0 1002.5 -0.1 59
2019-05-11 15:00:00 19.7 17 Este 24 Este 0 1002.6 0 59
2019-05-11 14:00:00 20.8 17 Sur 24 Sur 0 1002.6 0.5 61
2019-05-11 13:00:00 22.2 15 Sur 22 Sur 0 1002.6 0.8 59
2019-05-11 12:00:00 20.2 13 Este 24 Este 0 1002.6 1.1 63
2019-05-11 11:00:00 19.4 6 Este 17 Este 0 1002.1 0.8 65
2019-05-11 10:00:00 18.2 2 Sur 9 Este 0 1001.8 1.1 75
2019-05-11 09:00:00 17.3 2 Sudeste 8 Sudeste 0 1001.5 1.2 77
2019-05-11 08:00:00 15.3 0 Calma 8 Norte 0 1001.3 1.1 85
2019-05-11 07:00:00 11.8 0 Calma 9 Norte 0 1000.7 0.2 97
2019-05-11 06:00:00 11.3 0 Calma 5 Este 0 1000.3 -0.2 92
2019-05-11 05:00:00 12.5 0 Calma 5 Sur 0 1000.2 -0.1 89
2019-05-11 04:00:00 13.8 0 Calma 11 Noroeste 0 1000.5 0.2 85
2019-05-11 03:00:00 14.2 7 Oeste 9 Oeste 0 1000.5 0.3 87
2019-05-11 02:00:00 15.9 0 Calma 9 Norte 0 1000.3 1 83
2019-05-11 01:00:00 16 5 Sudoeste 15 Nordeste 0 1000.3 1.4 85
2019-05-11 00:00:00 16 9 Norte 13 Nordeste 0 1000.2 2.3 85
2019-05-10 23:00:00 15.9 4 Oeste 11 Oeste 0 999.3 2 74
2019-05-10 22:00:00 17.4 0 Calma 8 Norte 0 998.9 1.6 68
2019-05-10 21:00:00 19 0 Calma 11 Oeste 0 997.9 0.9 60
2019-05-10 20:00:00 20.6 11 Sur 22 Sur 0 997.3 0.5 48
2019-05-10 19:00:00 21.6 20 Sur 28 Sur 0 997.3 0.7 46
2019-05-10 18:00:00 23.3 19 Sudoeste 26 Sur 0 997 0.3 42
2019-05-10 17:00:00 22.8 18 Sur 37 Sur 0 996.8 0 44
2019-05-10 16:00:00 25.4 23 Sudoeste 35 Sudoeste 0 996.6 -0.4 37
2019-05-10 15:00:00 25.3 17 Sur 28 Sur 0 996.7 -0.5 41
2019-05-10 14:00:00 24.7 15 Sur 26 Sur 0 996.8 -0.3 45
2019-05-10 13:00:00 24 8 Sudoeste 18 Sudoeste 0 997 0.2 41
2019-05-10 12:00:00 22.7 8 Sur 17 Sur 0 997.2 0.6 44
2019-05-10 11:00:00 20.7 0 Calma 11 Este 0 997.1 1 50
2019-05-10 10:00:00 18.7 7 Este 13 Este 0 996.8 1.1 58
2019-05-10 09:00:00 15.2 2 Sur 11 Nordeste 0 996.6 1.1 79
2019-05-10 08:00:00 13.4 3 Noroeste 11 Noroeste 0 996.1 1 79
2019-05-10 07:00:00 10.1 5 Noroeste 11 Norte 0 995.7 0.7 94
2019-05-10 06:00:00 10.2 5 Norte 18 Norte 0 995.5 0.2 92
2019-05-10 05:00:00 10.8 3 Noroeste 13 Oeste 0 995.1 -0.6 92
2019-05-10 04:00:00 10.8 5 Sudoeste 13 Nordeste 0 995 -0.9 91
2019-05-10 03:00:00 11.8 4 Nordeste 13 Noroeste 0 995.3 -0.9 88
2019-05-10 02:00:00 12.2 9 Norte 11 Norte 0 995.7 -0.1 85
2019-05-10 01:00:00 12.5 5 Sudeste 13 Nordeste 0 995.9 0.6 81
2019-05-10 00:00:00 14.1 12 Norte 17 Norte 0 996.2 1.4 69
2019-05-09 23:00:00 14.2 7 Norte 11 Norte 0 995.8 1.1 72
2019-05-09 22:00:00 14 10 Sur 24 Sur 0 995.3 0.7 75
2019-05-09 21:00:00 15.8 14 Sur 26 Sur 0 994.8 0.1 59
2019-05-09 20:00:00 18.3 21 Sur 37 Sur 0 994.7 -0.4 50
2019-05-09 19:00:00 20 25 Sur 41 Sur 0 994.6 -1.4 42
2019-05-09 18:00:00 20 29 Sur 45 Sur 0 994.7 -1.6 47
2019-05-09 17:00:00 19.6 32 Sur 42 Sur 0 995.1 -1.3 59
2019-05-09 16:00:00 20.1 31 Sur 46 Sur 0 996 -0.5 52
2019-05-09 15:00:00 19.4 29 Sur 42 Sur 0 996.3 0 52
2019-05-09 14:00:00 19.8 23 Sur 39 Sur 0 996.4 0.2 47
2019-05-09 13:00:00 19.9 22 Sur 37 Sudoeste 0 996.5 0.3 48
2019-05-09 12:00:00 18.9 19 Sur 32 Sur 0 996.3 0.3 51
2019-05-09 11:00:00 18.2 14 Sur 22 Sur 0 996.2 0.7 57
2019-05-09 10:00:00 16 8 Sudoeste 13 Sudoeste 0 996.2 1.6 72
2019-05-09 09:00:00 13.6 0 Calma 8 Nordeste 0 996 1.9 81
2019-05-09 08:00:00 10.2 2 Sudoeste 8 Sudeste 0 995.5 1.6 91
2019-05-09 07:00:00 8 0 Calma 9 Oeste 0 994.6 0.9 96
2019-05-09 06:00:00 9.1 9 Oeste 15 Oeste 0 994.1 0.9 92
2019-05-09 05:00:00 8.7 6 Noroeste 13 Norte 0 993.9 0.9 92
2019-05-09 04:00:00 9.8 9 Noroeste 13 Norte 0 993.7 1.3 89
2019-05-09 03:00:00 10.4 9 Norte 15 Norte 0 993.2 1 86
2019-05-09 02:00:00 11.1 10 Norte 15 Nordeste 0 993 1.3 89
2019-05-09 01:00:00 12.7 8 Norte 21 Nordeste 0 992.4 1 86
2019-05-09 00:00:00 13.7 10 Nordeste 22 Nordeste 0 992.2 2.5 93
2019-05-08 23:00:00 13.8 7 Nordeste 22 Nordeste 0 991.7 3.1 95
2019-05-08 22:00:00 14.3 20 Nordeste 32 Norte 5.2 991.4 2.7 93
2019-05-08 21:00:00 17.8 27 Nordeste 50 Nordeste 0 989.7 1.4 79
2019-05-08 20:00:00 21.2 9 Sur 17 Sur 0 988.6 -0.2 65
2019-05-08 19:00:00 21.2 6 Norte 39 Sur 0 988.7 -0.3 67
2019-05-08 18:00:00 22.9 27 Sur 39 Sur 0 988.3 -1.5 59
2019-05-08 17:00:00 25 32 Sur 45 Sur 0 988.8 -1.7 54
2019-05-08 16:00:00 24.9 29 Sur 41 Sur 0 989 -1.9 54
2019-05-08 15:00:00 25.6 26 Sur 35 Sur 0 989.8 -2.1 55
2019-05-08 14:00:00 22.6 28 Sur 41 Sur 0 990.5 -1.8 65
2019-05-08 13:00:00 24.4 25 Sur 35 Sur 0 990.9 -2 58
2019-05-08 12:00:00 21.8 25 Sur 37 Sudoeste 0 991.9 -1.1 65
2019-05-08 11:00:00 19.8 25 Sur 33 Sur 0 992.3 -0.7 70
2019-05-08 10:00:00 17.7 18 Sudoeste 28 Sudoeste 0 992.9 -0.3 78
2019-05-08 09:00:00 15.5 18 Sudoeste 35 Sudoeste 0 993 -0.5 84
2019-05-08 08:00:00 14.9 17 Sudoeste 30 Sudoeste 0 993 -1.5 87
2019-05-08 07:00:00 14.1 9 Sudoeste 18 Sudoeste 0 993.2 -2 91
2019-05-08 06:00:00 14.4 11 Sudoeste 22 Sudoeste 0 993.5 -2.2 88
2019-05-08 05:00:00 14.8 15 Sudoeste 22 Sudoeste 0 994.5 -2 85
2019-05-08 04:00:00 15 14 Sudoeste 24 Sur 0 995.2 -1.9 82
2019-05-08 03:00:00 15.2 18 Sudoeste 28 Sudoeste 0 995.7 -2 81
2019-05-08 02:00:00 15.2 19 Sudoeste 30 Sudoeste 0 996.5 -1.9 80
2019-05-08 01:00:00 15.1 19 Sur 32 Sudoeste 0 997.1 -1.2 81
2019-05-08 00:00:00 15.2 19 Sur 32 Sudoeste 0 997.7 -0.4 81
2019-05-07 23:00:00 15.2 19 Sudoeste 32 Sudoeste 0 998.4 0.5 82
2019-05-07 22:00:00 15.4 20 Sur 35 Sur 0 998.3 0.6 82
2019-05-07 21:00:00 15.5 22 Sur 37 Sur 0 998.1 -0.1 83
2019-05-07 20:00:00 16.8 26 Sur 39 Sudoeste 0 997.9 -0.8 76
2019-05-07 19:00:00 17.9 24 Sur 45 Sur 0 997.7 -1.5 74
2019-05-07 18:00:00 19.8 30 Sur 46 Sur 0 998.2 -1.5 67
2019-05-07 17:00:00 18.9 33 Sur 48 Sur 0 998.7 -1.7 68
2019-05-07 16:00:00 20.8 38 Sur 50 Sur 0 999.2 -1.8 62
2019-05-07 15:00:00 21 33 Sur 45 Sur 0 999.7 -1.9 61
2019-05-07 14:00:00 20.9 26 Sur 37 Sur 0 1000.4 -1.8 60
2019-05-07 13:00:00 20.3 20 Sur 33 Sur 0 1001 -1.4 60
2019-05-07 12:00:00 19.6 22 Sur 33 Sur 0 1001.6 -0.8 57
2019-05-07 11:00:00 17.2 3 Oeste 9 Sudoeste 0 1002.2 0 60
2019-05-07 10:00:00 14.5 3 Sudeste 9 Sudoeste 0 1002.4 0.4 69
2019-05-07 09:00:00 11.5 0 Calma 9 Este 0 1002.4 0.3 84
2019-05-07 08:00:00 7.6 6 Nordeste 11 Sur 0 1002.2 -0.1 95
2019-05-07 07:00:00 5.3 0 Calma 8 Oeste 0 1002 -0.3 97
2019-05-07 06:00:00 5.7 2 Noroeste 9 Nordeste 0 1002.1 -0.7 97
2019-05-07 05:00:00 6.4 3 Nordeste 8 Sur 0 1002.3 -0.9 97
2019-05-07 04:00:00 6.4 0 Calma 8 Oeste 0 1002.3 -1 96
2019-05-07 03:00:00 6.9 0 Calma -- -- 0 1002.8 -0.6 92
2019-05-07 02:00:00 8 0 Calma -- -- 0 1003.2 -0.2 89
2019-05-07 01:00:00 9.6 0 Calma 5 Sur 0 1003.3 0.2 89
2019-05-07 00:00:00 10.5 5 Sudoeste 9 Sudoeste 0 1003.4 1.1 88
2019-05-06 23:00:00 11 3 Sur 13 Sur 0 1003.4 1.4 86
2019-05-06 22:00:00 11.6 10 Sur 18 Sur 0 1003.1 1.4 83
2019-05-06 21:00:00 12.6 14 Sur 30 Sur 0 1002.3 0.6 77
2019-05-06 20:00:00 15 21 Sur 33 Sur 0 1002 0.4 64
2019-05-06 19:00:00 16.4 24 Sur 33 Sur 0 1001.7 -0.3 58
2019-05-06 18:00:00 17.2 23 Sur 37 Sur 0 1001.7 -0.5 54
2019-05-06 17:00:00 17.7 25 Sur 45 Sur 0 1001.6 -0.4 50
2019-05-06 16:00:00 17.8 31 Sur 45 Sur 0 1002 -0.5 50
2019-05-06 15:00:00 18.7 26 Sur 37 Sur 0 1002.2 -0.7 46
2019-05-06 14:00:00 18.9 11 Sur 26 Sur 0 1002 -1 39
2019-05-06 13:00:00 18 5 Sudeste 18 Sur 0 1002.5 -0.8 36
2019-05-06 12:00:00 16.6 5 Este 17 Sudoeste 0 1002.9 -0.3 40
2019-05-06 11:00:00 15.3 9 Sur 15 Sur 0 1003 -0.1 42
2019-05-06 10:00:00 13.2 8 Este 15 Nordeste 0 1003.3 0.6 38
2019-05-06 09:00:00 10.4 2 Sudeste 8 Sudeste 0 1003.2 1.1 63
2019-05-06 08:00:00 6.1 3 Sudoeste 8 Nordeste 0 1003.1 1.1 76
2019-05-06 07:00:00 2.8 5 Nordeste 13 Noroeste 0 1002.7 0.8 80
2019-05-06 06:00:00 3.4 5 Noroeste 13 Noroeste 0 1002.1 0 80
2019-05-06 05:00:00 5.1 13 Norte 15 Norte 0 1002 -0.3 75
2019-05-06 04:00:00 5.2 6 Norte 13 Noroeste 0 1001.9 -0.1 76
2019-05-06 03:00:00 6.3 10 Noroeste 15 Norte 0 1002.1 0.4 68
2019-05-06 02:00:00 7.2 10 Norte 21 Norte 0 1002.3 1 60
2019-05-06 01:00:00 7.7 14 Norte 18 Norte 0 1002 1.8 57
2019-05-06 00:00:00 7.4 10 Nordeste 17 Norte 0 1001.7 2.3 63
2019-05-05 23:00:00 7.9 6 Nordeste 13 Nordeste 0 1001.3 2.6 73
2019-05-05 22:00:00 9.6 7 Oeste 17 Sudoeste 0 1000.2 1.7 66
2019-05-05 21:00:00 12 14 Sudoeste 26 Sudoeste 0 999.4 1.1 57
2019-05-05 20:00:00 14.9 15 Sur 42 Sur 0 998.7 0.8 34
2019-05-05 19:00:00 15.7 22 Sudoeste 35 Sudoeste 0 998.5 0.8 49
2019-05-05 18:00:00 17.3 26 Sur 39 Sur 0 998.3 0.8 44
2019-05-05 17:00:00 17.4 25 Sur 37 Sur 0 997.9 0.4 42
2019-05-05 16:00:00 19.3 25 Sur 39 Sur 0 997.7 0.1 32
2019-05-05 15:00:00 19.9 17 Sur 35 Nordeste 0 997.5 0 24
2019-05-05 14:00:00 19 9 Este 30 Nordeste 0 997.5 0 15
2019-05-05 13:00:00 18.7 7 Sur 18 Este 0 997.6 -0.1 21
2019-05-05 12:00:00 16.7 13 Nordeste 26 Este 0 997.5 -0.3 27
2019-05-05 11:00:00 14.9 9 Nordeste 21 Este 0 997.5 0.2 31
2019-05-05 10:00:00 12.7 10 Este 17 Este 0 997.7 1 37
2019-05-05 09:00:00 9.9 6 Noroeste 24 Nordeste 0 997.8 1.1 45
2019-05-05 08:00:00 7.3 18 Nordeste 30 Norte 0 997.3 0.6 57
2019-05-05 07:00:00 5.7 20 Norte 28 Norte 0 996.7 0.5 62
2019-05-05 06:00:00 6.8 9 Nordeste 37 Nordeste 0 996.7 1 56
2019-05-05 05:00:00 7.6 10 Este 33 Nordeste 0 996.7 1.3 55
2019-05-05 04:00:00 8.9 26 Nordeste 48 Nordeste 0 996.2 1 56
2019-05-05 03:00:00 9.3 26 Nordeste 39 Nordeste 0 995.7 0.8 78
2019-05-05 02:00:00 10.2 26 Nordeste 39 Nordeste 0 995.4 0.4 78
2019-05-05 01:00:00 12.2 25 Nordeste 33 Nordeste 0 995.2 0.4 78
2019-05-05 00:00:00 12.4 9 Nordeste 11 Nordeste 0.2 994.9 0.4 91
2019-05-04 23:00:00 13 3 Norte 11 Sudoeste 0 995 0.7 84
2019-05-04 22:00:00 13.1 6 Sudoeste 11 Sur 0 994.8 0.8 81
2019-05-04 21:00:00 13.4 6 Sudoeste 18 Sur 0 994.5 0.6 76
2019-05-04 20:00:00 14.9 10 Sur 18 Sur 0 994.3 0.6 59
2019-05-04 19:00:00 16 14 Sur 28 Sur 0 994 0.1 54
2019-05-04 18:00:00 17.1 17 Sur 30 Sur 0 993.9 -0.2 47
2019-05-04 17:00:00 18.4 20 Sur 32 Sur 0 993.7 -0.5 40
2019-05-04 16:00:00 20.3 22 Sur 32 Sudoeste 0 993.9 -0.9 42
2019-05-04 15:00:00 20 19 Sur 32 Sudoeste 0 994.1 -1.1 47
2019-05-04 14:00:00 19.9 11 Sudoeste 21 Sudoeste 0 994.2 -1 42
2019-05-04 13:00:00 18.8 6 Sur 15 Sur 0 994.8 -0.4 41
2019-05-04 12:00:00 17.6 4 Nordeste 13 Este 0 995.2 0 47
2019-05-04 11:00:00 15.7 4 Sudeste 9 Este 0 995.2 0.1 63
2019-05-04 10:00:00 12.7 5 Sudeste 9 Sur 0 995.2 0.5 83
2019-05-04 09:00:00 9.9 6 Sur 9 Sur 0 995.2 0.7 91
2019-05-04 08:00:00 6.3 4 Oeste 9 Oeste 0 995.1 0.4 99
2019-05-04 07:00:00 3.5 0 Calma 5 Este 0 994.7 -0.2 100
2019-05-04 06:00:00 4.1 0 Calma 8 Oeste 0 994.5 -0.7 100
2019-05-04 05:00:00 4.4 0 Calma 9 Sudeste 0 994.7 -0.9 99
2019-05-04 04:00:00 5 4 Sudeste 13 Sudeste 0 994.9 -0.7 99
2019-05-04 03:00:00 5.7 0 Calma 8 Oeste 0 995.2 -0.8 99
2019-05-04 02:00:00 6.3 0 Calma 8 Oeste 0 995.6 -0.4 99
2019-05-04 01:00:00 7.5 4 Oeste 11 Sur 0 995.6 -0.2 99
2019-05-04 00:00:00 8.3 0 Calma 8 Oeste 0 996 0.4 98
2019-05-03 23:00:00 9.5 0 Calma 9 Oeste 0 996 0.9 97
2019-05-03 22:00:00 10.3 9 Oeste 13 Oeste 0 995.8 0.3 97
2019-05-03 21:00:00 10.7 0 Calma -- -- 0 995.6 0 94
2019-05-03 20:00:00 11 0 Calma 9 Sur 0 995.1 -0.5 92
2019-05-03 19:00:00 10.8 3 Norte 13 Norte 0 995.5 -0.8 93
2019-05-03 18:00:00 10.8 12 Norte 30 Norte 0.3 995.6 -1.2 91
2019-05-03 17:00:00 10.6 16 Norte 22 Norte 1.3 995.6 -1.3 93
2019-05-03 16:00:00 10.4 12 Nordeste 24 Nordeste 1.4 996.3 -0.8 93
2019-05-03 15:00:00 10 18 Nordeste 33 Nordeste 1.4 996.8 -0.2 94
2019-05-03 14:00:00 10.8 19 Nordeste 26 Nordeste 1.5 996.9 0.1 92
2019-05-03 13:00:00 11.4 10 Nordeste 24 Este 2.1 997.1 0.7 91
2019-05-03 12:00:00 11.7 6 Este 21 Nordeste 2.9 997 0.5 90
2019-05-03 11:00:00 11.8 13 Nordeste 26 Este 1.1 996.8 0.3 89
2019-05-03 10:00:00 13.7 9 Nordeste 17 Norte 0 996.4 -0.2 86
2019-05-03 09:00:00 13.9 9 Nordeste 15 Nordeste 0 996.5 -0.4 86
2019-05-03 08:00:00 12.1 0 Calma 8 Norte 0 996.5 -0.8 95
2019-05-03 07:00:00 11.8 3 Nordeste 8 Nordeste 0 996.6 -1.3 96
2019-05-03 06:00:00 11.8 0 Calma 5 Noroeste 0 996.9 -1.7 97
2019-05-03 05:00:00 11.8 0 Calma 5 Norte 0 997.3 -1.9 97
2019-05-03 04:00:00 11.9 2 Noroeste 8 Noroeste 0 997.9 -1.7 97
2019-05-03 03:00:00 12.1 4 Sudeste 13 Nordeste 0 998.6 -0.9 96
2019-05-03 02:00:00 12.2 8 Sudoeste 13 Sur 1.1 999.2 -0.6 97
2019-05-03 01:00:00 12.8 3 Sudoeste 13 Norte 1 999.6 0 91
2019-05-03 00:00:00 12.9 6 Oeste 13 Oeste 0 999.5 0.1 90
2019-05-02 23:00:00 13 2 Oeste 13 Nordeste 0 999.8 0.2 92
2019-05-02 22:00:00 12.8 10 Oeste 15 Noroeste 0 999.6 0.1 93
2019-05-02 21:00:00 13 9 Noroeste 13 Noroeste 0.4 999.4 0 91
2019-05-02 20:00:00 13.6 7 Noroeste 11 Noroeste 0 999.6 0.2 88
2019-05-02 19:00:00 14.6 4 Noroeste 24 Norte 0.1 999.5 -0.1 80
2019-05-02 18:00:00 15.4 11 Nordeste 26 Nordeste 0 999.4 -0.6 67
2019-05-02 17:00:00 17.4 13 Nordeste 32 Sur 0 999.4 -0.8 58
2019-05-02 16:00:00 19.1 22 Sur 37 Sur 0 999.6 -0.9 53
2019-05-02 15:00:00 21.1 22 Sur 33 Sur 0 1000 -0.6 50
2019-05-02 14:00:00 19.9 23 Sur 35 Sudoeste 0 1000.2 -0.1 54
2019-05-02 13:00:00 18.6 17 Sudoeste 24 Sudoeste 0 1000.5 0.2 67
2019-05-02 12:00:00 18.3 10 Sudeste 26 Sur 0 1000.6 0.6 58
2019-05-02 11:00:00 17.5 12 Sudeste 17 Sur 0 1000.3 0.5 67
2019-05-02 10:00:00 16 0 Calma 9 Este 0 1000.3 1.4 77
2019-05-02 09:00:00 14.6 4 Oeste 8 Oeste 0 1000 1.5 79
2019-05-02 08:00:00 12.4 7 Norte 11 Nordeste 0 999.8 1.2 86
2019-05-02 07:00:00 11.5 6 Oeste 11 Oeste 0 998.9 0.6 88
2019-05-02 06:00:00 11.9 -- -- -- -- 0 998.5 -0.1 89
2019-05-02 05:00:00 11.7 0 Calma 11 Norte 0 998.6 -0.3 90
2019-05-02 04:00:00 11.9 7 Nordeste 9 Nordeste 0 998.3 -1 92
2019-05-02 03:00:00 12.4 5 Sur 8 Sur 0 998.6 -0.6 90
2019-05-02 02:00:00 12.8 5 Sudoeste 8 Sudoeste 0 998.9 -0.5 89
2019-05-02 01:00:00 13.8 3 Este 8 Este 0 999.3 0.1 86
2019-05-02 00:00:00 13.8 0 Calma 9 Sudoeste 0 999.2 0.9 85
2019-05-01 23:00:00 13.8 6 Sur 17 Sur 0 999.4 1.7 84
2019-05-01 22:00:00 14.6 11 Sur 18 Sur 0 999.2 1.8 78
2019-05-01 21:00:00 15.1 10 Sur 21 Sur 0 998.3 1.2 69
2019-05-01 20:00:00 17 12 Sur 24 Sur 0 997.7 0.6 63
2019-05-01 19:00:00 19.3 18 Sur 32 Sur 0 997.4 -0.1 58
2019-05-01 18:00:00 21 23 Sur 32 Sur 0 997.1 -0.8 54
2019-05-01 17:00:00 22 25 Sur 35 Sur 0 997.1 -1.1 50
2019-05-01 16:00:00 22.1 24 Sur 37 Sudoeste 0 997.5 -1.2 51
2019-05-01 15:00:00 22.4 23 Sur 32 Sur 0 997.9 -1.2 53
2019-05-01 14:00:00 23 18 Sur 30 Sur 0 998.2 -1 50
2019-05-01 13:00:00 22.4 17 Sur 28 Sur 0 998.7 -0.7 46
2019-05-01 12:00:00 22 15 Sur 28 Sur 0 999.1 -0.3 34
2019-05-01 11:00:00 20.4 7 Sudeste 17 Sur 0 999.2 -0.1 50
2019-05-01 10:00:00 17.5 2 Sudeste 9 Sudeste 0 999.4 0.5 63
2019-05-01 09:00:00 14.4 3 Sur 8 Sur 0 999.4 0.5 74
2019-05-01 08:00:00 11.4 0 Calma 9 Oeste 0 999.3 0.3 87
2019-05-01 07:00:00 8.8 5 Oeste 8 Oeste 0 998.9 -0.3 92
2019-05-01 06:00:00 9.5 5 Oeste 9 Oeste 0 998.9 -0.8 94
2019-05-01 05:00:00 9.3 0 Calma 9 Noroeste 0 999 -1.4 95
2019-05-01 04:00:00 8.7 3 Noroeste 9 Noroeste 0 999.2 -1.4 95
2019-05-01 03:00:00 9.7 2 Oeste 9 Oeste 0 999.7 -1.1 96
2019-05-01 02:00:00 9.3 6 Nordeste 11 Este 0 1000.4 -0.7 94
2019-05-01 01:00:00 10.6 3 Oeste 8 Este 0 1000.6 -0.2 92
2019-05-01 00:00:00 11.5 3 Nordeste 13 Nordeste 0 1000.8 0.5 90
2019-04-30 23:00:00 12.3 0 Calma 11 Sudeste 0 1001.1 1.3 86
2019-04-30 22:00:00 13.9 8 Sudeste 17 Sur 0 1000.8 1.1 81
2019-04-30 21:00:00 15.4 12 Sur 21 Sur 0 1000.3 0.5 73
2019-04-30 20:00:00 16.4 18 Sur 26 Sur 0 999.8 0.1 68
2019-04-30 19:00:00 17.4 17 Sur 30 Sur 0 999.7 -0.2 64
2019-04-30 18:00:00 18.5 18 Sur 30 Sur 0 999.8 -0.4 63
2019-04-30 17:00:00 20.2 23 Sur 33 Sur 0 999.7 -0.8 57
2019-04-30 16:00:00 21.4 19 Sur 35 Sur 0 999.9 -1.1 53
2019-04-30 15:00:00 21.2 20 Sur 37 Sur 0 1000.2 -1.3 49
2019-04-30 14:00:00 21.4 17 Sur 30 Sur 0 1000.5 -1.3 47
2019-04-30 13:00:00 20.5 15 Sur 28 Sur 0 1001 -1 49
2019-04-30 12:00:00 19.1 13 Sudoeste 26 Sur 0 1001.5 -0.6 50
2019-04-30 11:00:00 18.2 10 Sur 22 Sur 0 1001.8 -0.1 56
2019-04-30 10:00:00 16.5 6 Sudoeste 13 Oeste 0 1002 0.4 69
2019-04-30 09:00:00 14.8 2 Sudoeste 9 Oeste 0 1002.1 0.6 78
2019-04-30 08:00:00 11.8 4 Oeste 9 Oeste 0 1001.9 0.5 96
2019-04-30 07:00:00 11.1 4 Norte 9 Norte 0 1001.6 0.1 97
2019-04-30 06:00:00 11.2 0 Calma 9 Norte 0 1001.5 -0.3 96
2019-04-30 05:00:00 11.2 0 Calma 8 Sudoeste 0 1001.4 -1 95
2019-04-30 04:00:00 11.4 0 Calma 9 Nordeste 0 1001.5 -1.1 95
2019-04-30 03:00:00 11.3 0 Calma 9 Nordeste 0 1001.8 -1 95
2019-04-30 02:00:00 11.4 5 Nordeste 9 Nordeste 0 1002.4 -0.4 96
2019-04-30 01:00:00 11.5 0 Calma 9 Este 0 1002.6 0.2 95
2019-04-30 00:00:00 11.2 0 Calma 9 Este 0 1002.8 1.2 95
2019-04-29 23:00:00 11.1 0 Calma 5 Norte 0 1002.8 1.4 92
2019-04-29 22:00:00 12.6 0 Calma 13 Sudeste 0 1002.4 1.2 85
2019-04-29 21:00:00 13.8 11 Sur 21 Sur 0 1001.6 0.6 84
2019-04-29 20:00:00 15.3 14 Sur 24 Sur 0 1001.4 0.3 76
2019-04-29 19:00:00 18.1 18 Sur 26 Sur 0 1001.2 -0.4 65
2019-04-29 18:00:00 20.6 9 Sur 22 Sur 0 1001 -1.4 46
2019-04-29 17:00:00 19.4 13 Sur 26 Sudoeste 0 1001.1 -2.1 53
2019-04-29 16:00:00 19.8 4 Sudeste 13 Este 0 1001.6 -2.1 50
2019-04-29 15:00:00 19.8 5 Sudoeste 22 Oeste 0 1002.4 -1.8 50
2019-04-29 14:00:00 18.2 7 Sur 17 Sur 0 1003.2 -1.3 58
2019-04-29 13:00:00 16.2 5 Sur 13 Sudeste 0 1003.7 -1.2 64
2019-04-29 12:00:00 16.7 7 Sudoeste 15 Sudoeste 0 1004.2 -0.8 63
2019-04-29 11:00:00 14.5 0 Calma 8 Nordeste 0 1004.5 -0.3 71
2019-04-29 10:00:00 12.7 6 Nordeste 9 Nordeste 0 1004.9 0.6 80
2019-04-29 09:00:00 11.9 0 Calma 5 Sudoeste 0 1005 1 87
2019-04-29 08:00:00 11.2 2 Nordeste 11 Nordeste 0 1004.8 0.4 90
2019-04-29 07:00:00 10.9 0 Calma 9 Nordeste 0 1004.3 -0.4 90
2019-04-29 06:00:00 10.9 7 Nordeste 9 Nordeste 0 1004 -1.1 91
2019-04-29 05:00:00 11 0 Calma 5 Nordeste 0 1004.4 -1 89
2019-04-29 04:00:00 10.7 4 Nordeste -- -- 0 1004.7 -1 89
2019-04-29 03:00:00 10.4 0 Calma -- -- 0 1005.1 -0.6 90
2019-04-29 02:00:00 10.8 0 Calma 4 Oeste 0 1005.4 -0.5 85
2019-04-29 01:00:00 11.3 0 Calma 8 Sudeste 0 1005.7 -0.1 84
2019-04-29 00:00:00 11.3 4 Sudeste 9 Sudoeste 0 1005.7 0.5 83
2019-04-28 23:00:00 11.2 6 Sur 11 Sur 0 1005.9 1.1 82
2019-04-28 22:00:00 12 8 Sur 17 Sur 0 1005.8 1.1 78
2019-04-28 21:00:00 13.1 11 Sur 24 Sur 0 1005.2 0.4 73
2019-04-28 20:00:00 13.6 17 Sur 26 Sur 0 1004.8 -0.1 71
2019-04-28 19:00:00 14.1 17 Sur 30 Sur 0 1004.7 -0.6 68
2019-04-28 18:00:00 14.7 22 Sur 32 Sur 0 1004.8 -0.9 67
2019-04-28 17:00:00 15.7 22 Sur 37 Sudoeste 0 1004.9 -1.1 66
2019-04-28 16:00:00 15.8 25 Sur 33 Sur 0 1005.3 -1.4 66
2019-04-28 15:00:00 16.2 25 Sur 35 Sudoeste 0 1005.7 -1.8 67
2019-04-28 14:00:00 17.5 15 Sur 26 Sur 0 1006 -1.8 60
2019-04-28 13:00:00 18.1 10 Sur 18 Sur 0 1006.7 -1.4 55
2019-04-28 12:00:00 17.2 3 Este 17 Este 0 1007.5 -0.8 54
2019-04-28 11:00:00 15.1 8 Nordeste 18 Nordeste 0 1007.8 -0.2 59
2019-04-28 10:00:00 14.1 10 Nordeste 24 Este 0 1008.1 0.6 62
2019-04-28 09:00:00 11.8 13 Nordeste 21 Nordeste 0 1008.3 0.8 72
2019-04-28 08:00:00 9.8 6 Nordeste 8 Nordeste 0 1008 0.3 92
2019-04-28 07:00:00 7.1 0 Calma 4 Norte 0 1007.5 -0.2 95
2019-04-28 06:00:00 7.7 0 Calma -- -- 0 1007.5 -0.4 92
2019-04-28 05:00:00 9 0 Calma 8 Este 0 1007.7 -0.9 94
2019-04-28 04:00:00 9.9 3 Este 9 Sudoeste 0 1007.7 -0.9 94
2019-04-28 03:00:00 11.4 7 Sudoeste 9 Oeste 0 1007.9 -0.7 88
2019-04-28 02:00:00 12.6 4 Norte 8 Nordeste 0 1008.6 -0.4 87
2019-04-28 01:00:00 13 3 Noroeste 5 Norte 0 1008.6 0.2 82
2019-04-28 00:00:00 13.2 0 Calma 9 Este 0 1008.6 0.5 81
2019-04-27 23:00:00 13 5 Sur 8 Sur 0 1009 1.5 80
2019-04-27 22:00:00 14.2 9 Sudoeste 13 Sur 0 1008.4 1 75
2019-04-27 21:00:00 15.5 8 Sudoeste 18 Sudoeste 0 1008.1 0.8 74
2019-04-27 20:00:00 17.3 8 Sudoeste 11 Sudoeste 0 1007.5 0 66
2019-04-27 19:00:00 17.6 9 Sudoeste 18 Sudoeste 0 1007.4 -0.4 64
2019-04-27 18:00:00 17.9 11 Sudoeste 26 Sur 0 1007.3 -1 63
2019-04-27 17:00:00 18.7 19 Sudoeste 30 Sur 0 1007.5 -1.2 62
2019-04-27 16:00:00 20.5 13 Sur 24 Sur 0 1007.8 -1.5 54
2019-04-27 15:00:00 19.7 10 Sur 24 Sur 0 1008.3 -1.2 55
2019-04-27 14:00:00 19.1 12 Sur 30 Sur 0 1008.7 -0.7 57
2019-04-27 13:00:00 18.1 19 Sur 33 Sur 0 1009.3 -0.3 61
2019-04-27 12:00:00 16.1 17 Sudoeste 30 Sudoeste 0 1009.5 -0.1 67
2019-04-27 11:00:00 16.2 17 Sur 26 Sur 0 1009.4 0.1 67
2019-04-27 10:00:00 15.7 9 Sur 26 Sur 0 1009.6 0.8 69
2019-04-27 09:00:00 12 0 Calma 2 Nordeste 0 1009.6 1 87
2019-04-27 08:00:00 8.8 0 Calma 8 Nordeste 0 1009.3 0.9 96
2019-04-27 07:00:00 7 0 Calma 8 Sudoeste 0 1008.8 0.2 96
2019-04-27 06:00:00 8.1 4 Norte 8 Norte 0 1008.6 -0.1 98
2019-04-27 05:00:00 6.8 4 Norte 9 Noroeste 0 1008.4 -0.3 97
2019-04-27 04:00:00 7.4 3 Sudoeste 8 Sur 0 1008.6 -0.4 98
2019-04-27 03:00:00 9.1 0 Calma 8 Sudeste 0 1008.7 -0.3 97
2019-04-27 02:00:00 8.7 0 Calma 9 Noroeste 0 1008.7 0.2 95
2019-04-27 01:00:00 8.8 0 Calma 8 Norte 0 1009 1 93
2019-04-27 00:00:00 10.6 3 Oeste 11 Norte 0 1009 1.9 89
2019-04-26 23:00:00 12 7 Norte 11 Nordeste 0 1008.5 2.3 89
2019-04-26 22:00:00 12.5 6 Norte 8 Norte 0 1008 2.1 84
2019-04-26 21:00:00 12.8 5 Noroeste 13 Norte 0 1007.1 1.8 82
2019-04-26 20:00:00 13.3 10 Nordeste 17 Nordeste 0 1006.2 1.4 82
2019-04-26 19:00:00 14.3 9 Norte 15 Norte 0 1005.9 1.3 79
2019-04-26 18:00:00 16.7 9 Sudeste 26 Este 0 1005.3 1.4 53
2019-04-26 17:00:00 17.1 14 Este 24 Sudeste 0 1004.8 1.2 57
2019-04-26 16:00:00 17.8 13 Sur 35 Sur 0 1004.6 1 52
2019-04-26 15:00:00 19 24 Sur 39 Sur 0 1003.9 0.6 48
2019-04-26 14:00:00 18.8 20 Sur 35 Sur 0 1003.6 0.5 49
2019-04-26 13:00:00 19.1 20 Sur 30 Sur 0 1003.6 0.9 48
2019-04-26 12:00:00 18.3 13 Sur 32 Sur 0 1003.3 1.1 44
2019-04-26 11:00:00 16.5 9 Sudeste 17 Este 0 1003.1 2 52
2019-04-26 10:00:00 14.5 8 Este 18 Nordeste 0 1002.7 3.3 63
2019-04-26 09:00:00 12.6 10 Norte 26 Norte 0 1002.2 3.5 72
2019-04-26 08:00:00 8.9 19 Norte 30 Nordeste 0 1001.1 2.4 75
2019-04-26 07:00:00 9.1 6 Norte 15 Norte 0 999.4 1.2 69
2019-04-26 06:00:00 6.1 5 Sur 11 Norte 0 998.7 0.8 81
2019-04-26 05:00:00 6.3 6 Este 13 Norte 0 998.7 1.1 82
2019-04-26 04:00:00 9.1 3 Sur 15 Noroeste 0 998.2 1.2 69
2019-04-26 03:00:00 11.8 10 Noroeste 18 Noroeste 0 997.9 1.3 57
2019-04-26 02:00:00 9.2 3 Nordeste 15 Este 0 997.6 1.3 77
2019-04-26 01:00:00 10.7 5 Noroeste 11 Oeste 0 997 1.1 72
2019-04-26 00:00:00 11.3 8 Sudoeste 18 Sudoeste 0 996.6 1.2 81